sensor_id;sensor_type;location;lat;lon;timestamp;P1;durP1;ratioP1;P2;durP2;ratioP2
64615;SDS011;51027;42.162;24.754;2024-01-07T00:02:14;48.95;;;28.63;;
64615;SDS011;51027;42.162;24.754;2024-01-07T00:04:40;48.30;;;25.80;;
64615;SDS011;51027;42.162;24.754;2024-01-07T00:07:05;41.75;;;21.55;;
64615;SDS011;51027;42.162;24.754;2024-01-07T00:09:31;49.53;;;27.80;;
64615;SDS011;51027;42.162;24.754;2024-01-07T00:11:56;51.08;;;28.38;;
64615;SDS011;51027;42.162;24.754;2024-01-07T00:14:22;52.83;;;27.90;;
64615;SDS011;51027;42.162;24.754;2024-01-07T00:16:47;47.05;;;26.65;;
64615;SDS011;51027;42.162;24.754;2024-01-07T00:19:13;46.60;;;26.00;;
64615;SDS011;51027;42.162;24.754;2024-01-07T00:21:38;47.25;;;25.98;;
64615;SDS011;51027;42.162;24.754;2024-01-07T00:24:04;47.03;;;26.38;;
64615;SDS011;51027;42.162;24.754;2024-01-07T00:26:29;50.50;;;29.15;;
64615;SDS011;51027;42.162;24.754;2024-01-07T00:28:54;51.28;;;28.23;;
64615;SDS011;51027;42.162;24.754;2024-01-07T00:31:20;46.60;;;25.38;;
64615;SDS011;51027;42.162;24.754;2024-01-07T00:33:45;47.53;;;27.10;;
64615;SDS011;51027;42.162;24.754;2024-01-07T00:36:11;46.05;;;23.33;;
64615;SDS011;51027;42.162;24.754;2024-01-07T00:38:36;47.70;;;24.98;;
64615;SDS011;51027;42.162;24.754;2024-01-07T00:41:01;45.75;;;25.02;;
64615;SDS011;51027;42.162;24.754;2024-01-07T00:43:27;45.45;;;23.13;;
64615;SDS011;51027;42.162;24.754;2024-01-07T00:45:52;43.40;;;24.83;;
64615;SDS011;51027;42.162;24.754;2024-01-07T00:48:17;42.88;;;22.98;;
64615;SDS011;51027;42.162;24.754;2024-01-07T00:50:43;37.95;;;22.80;;
64615;SDS011;51027;42.162;24.754;2024-01-07T00:53:08;43.90;;;23.55;;
64615;SDS011;51027;42.162;24.754;2024-01-07T00:55:34;40.70;;;22.38;;
64615;SDS011;51027;42.162;24.754;2024-01-07T00:58:02;41.75;;;22.88;;
64615;SDS011;51027;42.162;24.754;2024-01-07T01:00:27;42.95;;;23.02;;
64615;SDS011;51027;42.162;24.754;2024-01-07T01:02:53;46.50;;;22.60;;
64615;SDS011;51027;42.162;24.754;2024-01-07T01:05:19;39.03;;;21.55;;
64615;SDS011;51027;42.162;24.754;2024-01-07T01:07:45;39.55;;;21.85;;
64615;SDS011;51027;42.162;24.754;2024-01-07T01:10:10;37.20;;;21.63;;
64615;SDS011;51027;42.162;24.754;2024-01-07T01:12:35;38.95;;;22.73;;
64615;SDS011;51027;42.162;24.754;2024-01-07T01:15:01;37.08;;;21.67;;
64615;SDS011;51027;42.162;24.754;2024-01-07T01:17:26;41.28;;;21.60;;
64615;SDS011;51027;42.162;24.754;2024-01-07T01:19:52;45.70;;;22.48;;
64615;SDS011;51027;42.162;24.754;2024-01-07T01:22:17;41.63;;;23.20;;
64615;SDS011;51027;42.162;24.754;2024-01-07T01:24:43;39.75;;;23.25;;
64615;SDS011;51027;42.162;24.754;2024-01-07T01:27:11;50.58;;;27.38;;
64615;SDS011;51027;42.162;24.754;2024-01-07T01:29:37;43.35;;;23.88;;
64615;SDS011;51027;42.162;24.754;2024-01-07T01:32:02;48.78;;;26.80;;
64615;SDS011;51027;42.162;24.754;2024-01-07T01:34:28;43.97;;;23.90;;
64615;SDS011;51027;42.162;24.754;2024-01-07T01:36:53;42.13;;;24.60;;
64615;SDS011;51027;42.162;24.754;2024-01-07T01:39:19;43.90;;;25.08;;
64615;SDS011;51027;42.162;24.754;2024-01-07T01:41:44;40.35;;;22.88;;
64615;SDS011;51027;42.162;24.754;2024-01-07T01:44:10;46.50;;;24.77;;
64615;SDS011;51027;42.162;24.754;2024-01-07T01:46:35;42.88;;;22.83;;
64615;SDS011;51027;42.162;24.754;2024-01-07T01:49:01;39.90;;;22.95;;
64615;SDS011;51027;42.162;24.754;2024-01-07T01:51:27;41.00;;;22.85;;
64615;SDS011;51027;42.162;24.754;2024-01-07T01:53:52;40.28;;;23.30;;
64615;SDS011;51027;42.162;24.754;2024-01-07T01:56:19;42.45;;;24.17;;
64615;SDS011;51027;42.162;24.754;2024-01-07T01:58:48;42.03;;;24.05;;
64615;SDS011;51027;42.162;24.754;2024-01-07T02:01:13;42.90;;;23.17;;
64615;SDS011;51027;42.162;24.754;2024-01-07T02:03:39;40.00;;;22.17;;
64615;SDS011;51027;42.162;24.754;2024-01-07T02:06:04;43.20;;;23.08;;
64615;SDS011;51027;42.162;24.754;2024-01-07T02:08:30;43.65;;;22.88;;
64615;SDS011;51027;42.162;24.754;2024-01-07T02:10:56;43.20;;;22.35;;
64615;SDS011;51027;42.162;24.754;2024-01-07T02:13:22;42.75;;;22.17;;
64615;SDS011;51027;42.162;24.754;2024-01-07T02:15:47;41.63;;;22.35;;
64615;SDS011;51027;42.162;24.754;2024-01-07T02:18:12;40.97;;;23.13;;
64615;SDS011;51027;42.162;24.754;2024-01-07T02:20:38;43.90;;;23.27;;
64615;SDS011;51027;42.162;24.754;2024-01-07T02:23:04;40.95;;;22.00;;
64615;SDS011;51027;42.162;24.754;2024-01-07T02:25:34;36.55;;;20.55;;
64615;SDS011;51027;42.162;24.754;2024-01-07T02:28:00;41.00;;;21.13;;
64615;SDS011;51027;42.162;24.754;2024-01-07T02:30:26;47.03;;;23.65;;
64615;SDS011;51027;42.162;24.754;2024-01-07T02:32:52;41.45;;;22.02;;
64615;SDS011;51027;42.162;24.754;2024-01-07T02:35:17;41.30;;;21.23;;
64615;SDS011;51027;42.162;24.754;2024-01-07T02:37:43;38.90;;;21.45;;
64615;SDS011;51027;42.162;24.754;2024-01-07T02:40:08;37.78;;;20.83;;
64615;SDS011;51027;42.162;24.754;2024-01-07T02:42:34;37.78;;;22.33;;
64615;SDS011;51027;42.162;24.754;2024-01-07T02:45:00;38.55;;;20.15;;
64615;SDS011;51027;42.162;24.754;2024-01-07T02:47:25;36.03;;;19.42;;
64615;SDS011;51027;42.162;24.754;2024-01-07T02:49:51;30.30;;;15.77;;
64615;SDS011;51027;42.162;24.754;2024-01-07T02:52:16;35.00;;;18.58;;
64615;SDS011;51027;42.162;24.754;2024-01-07T02:54:41;38.30;;;19.65;;
64615;SDS011;51027;42.162;24.754;2024-01-07T02:57:07;35.45;;;18.05;;
64615;SDS011;51027;42.162;24.754;2024-01-07T02:59:32;33.72;;;16.83;;
64615;SDS011;51027;42.162;24.754;2024-01-07T03:01:58;36.88;;;19.48;;
64615;SDS011;51027;42.162;24.754;2024-01-07T03:04:23;29.80;;;17.13;;
64615;SDS011;51027;42.162;24.754;2024-01-07T03:06:49;34.33;;;18.33;;
64615;SDS011;51027;42.162;24.754;2024-01-07T03:09:14;35.72;;;18.55;;
64615;SDS011;51027;42.162;24.754;2024-01-07T03:11:40;29.92;;;16.45;;
64615;SDS011;51027;42.162;24.754;2024-01-07T03:14:09;32.00;;;16.48;;
64615;SDS011;51027;42.162;24.754;2024-01-07T03:16:34;41.38;;;19.80;;
64615;SDS011;51027;42.162;24.754;2024-01-07T03:19:00;37.88;;;18.40;;
64615;SDS011;51027;42.162;24.754;2024-01-07T03:21:27;31.27;;;17.08;;
64615;SDS011;51027;42.162;24.754;2024-01-07T03:23:52;34.65;;;17.48;;
64615;SDS011;51027;42.162;24.754;2024-01-07T03:26:18;39.40;;;16.48;;
64615;SDS011;51027;42.162;24.754;2024-01-07T03:28:44;39.28;;;18.13;;
64615;SDS011;51027;42.162;24.754;2024-01-07T03:31:14;45.22;;;19.80;;
64615;SDS011;51027;42.162;24.754;2024-01-07T03:33:40;35.15;;;17.35;;
64615;SDS011;51027;42.162;24.754;2024-01-07T03:36:11;37.67;;;18.70;;
64615;SDS011;51027;42.162;24.754;2024-01-07T03:38:37;37.47;;;18.13;;
64615;SDS011;51027;42.162;24.754;2024-01-07T03:41:03;39.20;;;18.08;;
64615;SDS011;51027;42.162;24.754;2024-01-07T03:43:29;32.88;;;16.42;;
64615;SDS011;51027;42.162;24.754;2024-01-07T03:45:55;37.92;;;19.88;;
64615;SDS011;51027;42.162;24.754;2024-01-07T03:48:20;39.28;;;20.80;;
64615;SDS011;51027;42.162;24.754;2024-01-07T03:50:46;41.40;;;21.63;;
64615;SDS011;51027;42.162;24.754;2024-01-07T03:53:11;41.88;;;21.38;;
64615;SDS011;51027;42.162;24.754;2024-01-07T03:55:37;39.53;;;20.25;;
64615;SDS011;51027;42.162;24.754;2024-01-07T03:58:02;39.63;;;22.10;;
64615;SDS011;51027;42.162;24.754;2024-01-07T04:00:28;41.38;;;21.63;;
64615;SDS011;51027;42.162;24.754;2024-01-07T04:02:53;47.28;;;23.42;;
64615;SDS011;51027;42.162;24.754;2024-01-07T04:05:19;40.63;;;22.63;;
64615;SDS011;51027;42.162;24.754;2024-01-07T04:07:44;37.40;;;21.83;;
64615;SDS011;51027;42.162;24.754;2024-01-07T04:10:09;41.35;;;22.05;;
64615;SDS011;51027;42.162;24.754;2024-01-07T04:12:36;41.60;;;23.27;;
64615;SDS011;51027;42.162;24.754;2024-01-07T04:15:01;42.88;;;22.23;;
64615;SDS011;51027;42.162;24.754;2024-01-07T04:17:27;44.13;;;23.08;;
64615;SDS011;51027;42.162;24.754;2024-01-07T04:19:52;42.00;;;23.10;;
64615;SDS011;51027;42.162;24.754;2024-01-07T04:22:18;38.40;;;19.25;;
64615;SDS011;51027;42.162;24.754;2024-01-07T04:24:43;33.65;;;18.95;;
64615;SDS011;51027;42.162;24.754;2024-01-07T04:27:09;37.38;;;20.25;;
64615;SDS011;51027;42.162;24.754;2024-01-07T04:29:34;40.85;;;20.98;;
64615;SDS011;51027;42.162;24.754;2024-01-07T04:32:00;39.20;;;20.20;;
64615;SDS011;51027;42.162;24.754;2024-01-07T04:34:25;35.90;;;19.38;;
64615;SDS011;51027;42.162;24.754;2024-01-07T04:36:51;40.78;;;23.00;;
64615;SDS011;51027;42.162;24.754;2024-01-07T04:39:17;41.22;;;20.35;;
64615;SDS011;51027;42.162;24.754;2024-01-07T04:41:42;38.28;;;22.27;;
64615;SDS011;51027;42.162;24.754;2024-01-07T04:44:07;39.30;;;21.95;;
64615;SDS011;51027;42.162;24.754;2024-01-07T04:46:33;43.05;;;22.20;;
64615;SDS011;51027;42.162;24.754;2024-01-07T04:49:00;43.40;;;23.33;;
64615;SDS011;51027;42.162;24.754;2024-01-07T04:51:25;42.08;;;22.17;;
64615;SDS011;51027;42.162;24.754;2024-01-07T04:53:51;40.20;;;21.10;;
64615;SDS011;51027;42.162;24.754;2024-01-07T04:56:16;39.72;;;22.67;;
64615;SDS011;51027;42.162;24.754;2024-01-07T04:58:41;39.70;;;20.75;;
64615;SDS011;51027;42.162;24.754;2024-01-07T05:01:07;41.05;;;22.42;;
64615;SDS011;51027;42.162;24.754;2024-01-07T05:03:32;42.00;;;23.13;;
64615;SDS011;51027;42.162;24.754;2024-01-07T05:05:59;41.90;;;25.45;;
64615;SDS011;51027;42.162;24.754;2024-01-07T05:08:24;42.83;;;22.35;;
64615;SDS011;51027;42.162;24.754;2024-01-07T05:10:51;43.28;;;24.15;;
64615;SDS011;51027;42.162;24.754;2024-01-07T05:13:17;41.13;;;23.58;;
64615;SDS011;51027;42.162;24.754;2024-01-07T05:15:42;49.17;;;24.88;;
64615;SDS011;51027;42.162;24.754;2024-01-07T05:18:08;44.70;;;24.95;;
64615;SDS011;51027;42.162;24.754;2024-01-07T05:20:34;42.40;;;22.02;;
64615;SDS011;51027;42.162;24.754;2024-01-07T05:23:00;47.35;;;21.52;;
64615;SDS011;51027;42.162;24.754;2024-01-07T05:25:25;39.80;;;21.00;;
64615;SDS011;51027;42.162;24.754;2024-01-07T05:27:50;44.83;;;23.10;;
64615;SDS011;51027;42.162;24.754;2024-01-07T05:30:16;46.95;;;26.25;;
64615;SDS011;51027;42.162;24.754;2024-01-07T05:32:41;47.65;;;26.20;;
64615;SDS011;51027;42.162;24.754;2024-01-07T05:35:07;51.38;;;27.40;;
64615;SDS011;51027;42.162;24.754;2024-01-07T05:37:32;50.80;;;27.50;;
64615;SDS011;51027;42.162;24.754;2024-01-07T05:39:58;51.20;;;27.05;;
64615;SDS011;51027;42.162;24.754;2024-01-07T05:42:23;46.42;;;26.00;;
64615;SDS011;51027;42.162;24.754;2024-01-07T05:44:48;43.13;;;23.42;;
64615;SDS011;51027;42.162;24.754;2024-01-07T05:47:14;40.40;;;20.98;;
64615;SDS011;51027;42.162;24.754;2024-01-07T05:49:39;37.45;;;19.80;;
64615;SDS011;51027;42.162;24.754;2024-01-07T05:52:04;35.00;;;20.23;;
64615;SDS011;51027;42.162;24.754;2024-01-07T05:54:30;38.03;;;18.83;;
64615;SDS011;51027;42.162;24.754;2024-01-07T05:56:55;35.80;;;19.95;;
64615;SDS011;51027;42.162;24.754;2024-01-07T05:59:20;38.22;;;19.42;;
64615;SDS011;51027;42.162;24.754;2024-01-07T06:01:46;36.45;;;19.15;;
64615;SDS011;51027;42.162;24.754;2024-01-07T06:04:11;35.85;;;18.80;;
64615;SDS011;51027;42.162;24.754;2024-01-07T06:06:37;35.67;;;19.20;;
64615;SDS011;51027;42.162;24.754;2024-01-07T06:09:02;36.92;;;18.92;;
64615;SDS011;51027;42.162;24.754;2024-01-07T06:11:27;30.95;;;17.42;;
64615;SDS011;51027;42.162;24.754;2024-01-07T06:13:53;41.60;;;18.95;;
64615;SDS011;51027;42.162;24.754;2024-01-07T06:16:18;38.20;;;21.92;;
64615;SDS011;51027;42.162;24.754;2024-01-07T06:18:44;34.65;;;17.80;;
64615;SDS011;51027;42.162;24.754;2024-01-07T06:21:09;44.97;;;23.98;;
64615;SDS011;51027;42.162;24.754;2024-01-07T06:23:34;38.15;;;20.60;;
64615;SDS011;51027;42.162;24.754;2024-01-07T06:26:02;42.65;;;24.25;;
64615;SDS011;51027;42.162;24.754;2024-01-07T06:28:28;49.00;;;26.30;;
64615;SDS011;51027;42.162;24.754;2024-01-07T06:30:53;43.60;;;24.55;;
64615;SDS011;51027;42.162;24.754;2024-01-07T06:33:19;41.35;;;23.08;;
64615;SDS011;51027;42.162;24.754;2024-01-07T06:35:45;43.13;;;27.33;;
64615;SDS011;51027;42.162;24.754;2024-01-07T06:38:11;44.35;;;24.95;;
64615;SDS011;51027;42.162;24.754;2024-01-07T06:40:36;42.33;;;23.55;;
64615;SDS011;51027;42.162;24.754;2024-01-07T06:43:02;39.55;;;23.35;;
64615;SDS011;51027;42.162;24.754;2024-01-07T06:45:27;40.15;;;24.42;;
64615;SDS011;51027;42.162;24.754;2024-01-07T06:47:53;42.30;;;25.15;;
64615;SDS011;51027;42.162;24.754;2024-01-07T06:50:19;37.20;;;23.92;;
64615;SDS011;51027;42.162;24.754;2024-01-07T06:52:45;38.70;;;24.77;;
64615;SDS011;51027;42.162;24.754;2024-01-07T06:55:11;37.80;;;22.92;;
64615;SDS011;51027;42.162;24.754;2024-01-07T06:57:36;42.80;;;25.15;;
64615;SDS011;51027;42.162;24.754;2024-01-07T07:00:02;34.83;;;21.15;;
64615;SDS011;51027;42.162;24.754;2024-01-07T07:02:28;43.78;;;26.48;;
64615;SDS011;51027;42.162;24.754;2024-01-07T07:04:53;52.72;;;31.00;;
64615;SDS011;51027;42.162;24.754;2024-01-07T07:07:19;44.13;;;25.92;;
64615;SDS011;51027;42.162;24.754;2024-01-07T07:09:44;42.42;;;24.38;;
64615;SDS011;51027;42.162;24.754;2024-01-07T07:12:11;41.83;;;23.95;;
64615;SDS011;51027;42.162;24.754;2024-01-07T07:14:37;40.53;;;20.80;;
64615;SDS011;51027;42.162;24.754;2024-01-07T07:17:03;51.42;;;29.15;;
64615;SDS011;51027;42.162;24.754;2024-01-07T07:19:28;42.13;;;23.17;;
64615;SDS011;51027;42.162;24.754;2024-01-07T07:21:54;45.47;;;26.55;;
64615;SDS011;51027;42.162;24.754;2024-01-07T07:24:20;36.55;;;22.00;;
64615;SDS011;51027;42.162;24.754;2024-01-07T07:26:45;43.13;;;25.73;;
64615;SDS011;51027;42.162;24.754;2024-01-07T07:29:10;43.50;;;25.42;;
64615;SDS011;51027;42.162;24.754;2024-01-07T07:31:36;43.30;;;24.90;;
64615;SDS011;51027;42.162;24.754;2024-01-07T07:34:04;40.85;;;25.90;;
64615;SDS011;51027;42.162;24.754;2024-01-07T07:36:30;42.05;;;26.45;;
64615;SDS011;51027;42.162;24.754;2024-01-07T07:38:56;44.53;;;25.17;;
64615;SDS011;51027;42.162;24.754;2024-01-07T07:41:21;40.17;;;21.38;;
64615;SDS011;51027;42.162;24.754;2024-01-07T07:43:46;41.75;;;22.70;;
64615;SDS011;51027;42.162;24.754;2024-01-07T07:46:12;47.35;;;27.50;;
64615;SDS011;51027;42.162;24.754;2024-01-07T07:48:38;56.28;;;34.00;;
64615;SDS011;51027;42.162;24.754;2024-01-07T07:51:04;56.97;;;34.85;;
64615;SDS011;51027;42.162;24.754;2024-01-07T07:53:30;55.15;;;35.00;;
64615;SDS011;51027;42.162;24.754;2024-01-07T07:55:55;83.63;;;48.60;;
64615;SDS011;51027;42.162;24.754;2024-01-07T07:58:20;84.25;;;49.45;;
64615;SDS011;51027;42.162;24.754;2024-01-07T08:00:46;66.13;;;42.40;;
64615;SDS011;51027;42.162;24.754;2024-01-07T08:03:12;56.22;;;37.83;;
64615;SDS011;51027;42.162;24.754;2024-01-07T08:05:37;45.97;;;27.80;;
64615;SDS011;51027;42.162;24.754;2024-01-07T08:08:02;37.85;;;21.10;;
64615;SDS011;51027;42.162;24.754;2024-01-07T08:10:28;36.88;;;21.83;;
64615;SDS011;51027;42.162;24.754;2024-01-07T08:12:56;36.35;;;19.92;;
64615;SDS011;51027;42.162;24.754;2024-01-07T08:15:22;34.45;;;18.65;;
64615;SDS011;51027;42.162;24.754;2024-01-07T08:17:48;32.63;;;18.00;;
64615;SDS011;51027;42.162;24.754;2024-01-07T08:20:16;30.92;;;16.67;;
64615;SDS011;51027;42.162;24.754;2024-01-07T08:22:41;28.75;;;16.08;;
64615;SDS011;51027;42.162;24.754;2024-01-07T08:25:07;28.75;;;16.00;;
64615;SDS011;51027;42.162;24.754;2024-01-07T08:27:33;33.58;;;17.67;;
64615;SDS011;51027;42.162;24.754;2024-01-07T08:30:00;29.63;;;16.20;;
64615;SDS011;51027;42.162;24.754;2024-01-07T08:32:26;33.97;;;18.38;;
64615;SDS011;51027;42.162;24.754;2024-01-07T08:34:52;33.42;;;17.02;;
64615;SDS011;51027;42.162;24.754;2024-01-07T08:37:17;29.50;;;17.40;;
64615;SDS011;51027;42.162;24.754;2024-01-07T08:39:42;32.47;;;18.60;;
64615;SDS011;51027;42.162;24.754;2024-01-07T08:42:08;32.45;;;17.17;;
64615;SDS011;51027;42.162;24.754;2024-01-07T08:44:34;29.05;;;17.38;;
64615;SDS011;51027;42.162;24.754;2024-01-07T08:46:59;28.90;;;16.50;;
64615;SDS011;51027;42.162;24.754;2024-01-07T08:49:26;25.88;;;14.25;;
64615;SDS011;51027;42.162;24.754;2024-01-07T08:51:53;24.63;;;13.77;;
64615;SDS011;51027;42.162;24.754;2024-01-07T08:54:19;26.75;;;15.35;;
64615;SDS011;51027;42.162;24.754;2024-01-07T08:56:44;24.70;;;13.27;;
64615;SDS011;51027;42.162;24.754;2024-01-07T08:59:10;25.52;;;14.05;;
64615;SDS011;51027;42.162;24.754;2024-01-07T09:01:35;26.42;;;12.90;;
64615;SDS011;51027;42.162;24.754;2024-01-07T09:04:01;24.90;;;13.85;;
64615;SDS011;51027;42.162;24.754;2024-01-07T09:06:26;30.58;;;15.68;;
64615;SDS011;51027;42.162;24.754;2024-01-07T09:08:52;30.15;;;16.67;;
64615;SDS011;51027;42.162;24.754;2024-01-07T09:11:20;32.83;;;17.98;;
64615;SDS011;51027;42.162;24.754;2024-01-07T09:13:45;27.48;;;16.58;;
64615;SDS011;51027;42.162;24.754;2024-01-07T09:16:13;27.95;;;14.15;;
64615;SDS011;51027;42.162;24.754;2024-01-07T09:18:40;22.75;;;9.88;;
64615;SDS011;51027;42.162;24.754;2024-01-07T09:21:06;19.95;;;10.30;;
64615;SDS011;51027;42.162;24.754;2024-01-07T09:23:31;20.88;;;9.15;;
64615;SDS011;51027;42.162;24.754;2024-01-07T09:25:58;20.42;;;9.70;;
64615;SDS011;51027;42.162;24.754;2024-01-07T09:28:24;22.08;;;10.40;;
64615;SDS011;51027;42.162;24.754;2024-01-07T09:30:50;19.38;;;10.27;;
64615;SDS011;51027;42.162;24.754;2024-01-07T09:33:15;18.08;;;8.30;;
64615;SDS011;51027;42.162;24.754;2024-01-07T09:35:41;17.45;;;8.13;;
64615;SDS011;51027;42.162;24.754;2024-01-07T09:38:08;20.90;;;8.60;;
64615;SDS011;51027;42.162;24.754;2024-01-07T09:40:34;16.65;;;6.47;;
64615;SDS011;51027;42.162;24.754;2024-01-07T09:42:59;17.80;;;7.40;;
64615;SDS011;51027;42.162;24.754;2024-01-07T09:45:25;15.32;;;5.70;;
64615;SDS011;51027;42.162;24.754;2024-01-07T09:47:51;15.75;;;5.20;;
64615;SDS011;51027;42.162;24.754;2024-01-07T09:50:16;11.70;;;3.70;;
64615;SDS011;51027;42.162;24.754;2024-01-07T09:52:42;13.13;;;4.60;;
64615;SDS011;51027;42.162;24.754;2024-01-07T09:55:09;17.25;;;6.60;;
64615;SDS011;51027;42.162;24.754;2024-01-07T09:57:44;18.98;;;5.18;;
64615;SDS011;51027;42.162;24.754;2024-01-07T10:00:09;12.63;;;4.18;;
64615;SDS011;51027;42.162;24.754;2024-01-07T10:02:37;22.73;;;9.15;;
64615;SDS011;51027;42.162;24.754;2024-01-07T10:05:02;28.65;;;15.52;;
64615;SDS011;51027;42.162;24.754;2024-01-07T10:07:28;17.50;;;6.50;;
64615;SDS011;51027;42.162;24.754;2024-01-07T10:09:53;17.17;;;7.18;;
64615;SDS011;51027;42.162;24.754;2024-01-07T10:12:24;16.70;;;6.45;;
64615;SDS011;51027;42.162;24.754;2024-01-07T10:14:49;17.75;;;5.72;;
64615;SDS011;51027;42.162;24.754;2024-01-07T10:17:15;19.05;;;7.70;;
64615;SDS011;51027;42.162;24.754;2024-01-07T10:19:44;19.00;;;7.90;;
64615;SDS011;51027;42.162;24.754;2024-01-07T10:22:12;14.30;;;4.72;;
64615;SDS011;51027;42.162;24.754;2024-01-07T10:24:39;19.58;;;7.32;;
64615;SDS011;51027;42.162;24.754;2024-01-07T10:27:06;12.50;;;4.18;;
64615;SDS011;51027;42.162;24.754;2024-01-07T10:29:33;13.00;;;3.70;;
64615;SDS011;51027;42.162;24.754;2024-01-07T10:32:02;14.88;;;5.05;;
64615;SDS011;51027;42.162;24.754;2024-01-07T10:34:33;12.93;;;3.35;;
64615;SDS011;51027;42.162;24.754;2024-01-07T10:37:00;9.73;;;3.05;;
64615;SDS011;51027;42.162;24.754;2024-01-07T10:39:27;10.57;;;3.30;;
64615;SDS011;51027;42.162;24.754;2024-01-07T10:41:52;8.40;;;2.80;;
64615;SDS011;51027;42.162;24.754;2024-01-07T10:44:24;9.27;;;3.00;;
64615;SDS011;51027;42.162;24.754;2024-01-07T10:46:51;10.02;;;3.53;;
64615;SDS011;51027;42.162;24.754;2024-01-07T10:49:20;6.25;;;2.60;;
64615;SDS011;51027;42.162;24.754;2024-01-07T10:51:47;10.75;;;2.58;;
64615;SDS011;51027;42.162;24.754;2024-01-07T10:54:36;17.08;;;4.50;;
64615;SDS011;51027;42.162;24.754;2024-01-07T11:02:19;17.40;;;3.70;;
64615;SDS011;51027;42.162;24.754;2024-01-07T11:04:50;13.88;;;3.40;;
64615;SDS011;51027;42.162;24.754;2024-01-07T11:10:07;11.20;;;3.33;;
64615;SDS011;51027;42.162;24.754;2024-01-07T11:12:36;12.20;;;2.80;;
64615;SDS011;51027;42.162;24.754;2024-01-07T11:15:02;10.35;;;2.50;;
64615;SDS011;51027;42.162;24.754;2024-01-07T11:20:06;10.68;;;3.00;;
64615;SDS011;51027;42.162;24.754;2024-01-07T11:22:37;13.68;;;3.17;;
64615;SDS011;51027;42.162;24.754;2024-01-07T11:25:20;9.63;;;3.00;;
64615;SDS011;51027;42.162;24.754;2024-01-07T11:27:55;8.30;;;2.50;;
64615;SDS011;51027;42.162;24.754;2024-01-07T11:30:22;16.55;;;3.35;;
64615;SDS011;51027;42.162;24.754;2024-01-07T11:32:47;9.63;;;2.60;;
64615;SDS011;51027;42.162;24.754;2024-01-07T11:35:13;10.70;;;2.60;;
64615;SDS011;51027;42.162;24.754;2024-01-07T11:37:38;9.32;;;2.55;;
64615;SDS011;51027;42.162;24.754;2024-01-07T11:40:04;9.68;;;2.67;;
64615;SDS011;51027;42.162;24.754;2024-01-07T11:42:32;10.65;;;2.75;;
64615;SDS011;51027;42.162;24.754;2024-01-07T11:44:57;9.60;;;3.08;;
64615;SDS011;51027;42.162;24.754;2024-01-07T11:47:23;12.05;;;3.67;;
64615;SDS011;51027;42.162;24.754;2024-01-07T11:52:18;10.40;;;3.42;;
64615;SDS011;51027;42.162;24.754;2024-01-07T11:54:45;13.73;;;3.60;;
64615;SDS011;51027;42.162;24.754;2024-01-07T11:57:12;14.15;;;3.78;;
64615;SDS011;51027;42.162;24.754;2024-01-07T11:59:38;11.57;;;2.90;;
64615;SDS011;51027;42.162;24.754;2024-01-07T12:02:04;10.45;;;2.78;;
64615;SDS011;51027;42.162;24.754;2024-01-07T12:04:32;11.63;;;3.22;;
64615;SDS011;51027;42.162;24.754;2024-01-07T12:06:59;13.40;;;2.75;;
64615;SDS011;51027;42.162;24.754;2024-01-07T12:09:24;12.00;;;2.22;;
64615;SDS011;51027;42.162;24.754;2024-01-07T12:11:51;9.52;;;2.45;;
64615;SDS011;51027;42.162;24.754;2024-01-07T12:14:16;12.13;;;3.08;;
64615;SDS011;51027;42.162;24.754;2024-01-07T12:16:43;7.72;;;2.33;;
64615;SDS011;51027;42.162;24.754;2024-01-07T12:19:09;11.65;;;2.80;;
64615;SDS011;51027;42.162;24.754;2024-01-07T12:21:35;14.85;;;3.42;;
64615;SDS011;51027;42.162;24.754;2024-01-07T12:24:00;11.18;;;2.70;;
64615;SDS011;51027;42.162;24.754;2024-01-07T12:26:32;8.77;;;2.10;;
64615;SDS011;51027;42.162;24.754;2024-01-07T12:29:02;11.57;;;2.95;;
64615;SDS011;51027;42.162;24.754;2024-01-07T12:31:34;10.10;;;2.40;;
64615;SDS011;51027;42.162;24.754;2024-01-07T12:34:00;9.35;;;2.20;;
64615;SDS011;51027;42.162;24.754;2024-01-07T12:36:29;10.27;;;3.10;;
64615;SDS011;51027;42.162;24.754;2024-01-07T12:38:54;10.63;;;2.97;;
64615;SDS011;51027;42.162;24.754;2024-01-07T12:41:20;11.02;;;2.67;;
64615;SDS011;51027;42.162;24.754;2024-01-07T12:43:49;16.25;;;3.75;;
64615;SDS011;51027;42.162;24.754;2024-01-07T12:46:15;11.20;;;2.85;;
64615;SDS011;51027;42.162;24.754;2024-01-07T12:48:41;17.27;;;3.40;;
64615;SDS011;51027;42.162;24.754;2024-01-07T12:51:06;11.60;;;3.05;;
64615;SDS011;51027;42.162;24.754;2024-01-07T12:53:32;12.18;;;2.67;;
64615;SDS011;51027;42.162;24.754;2024-01-07T12:55:57;12.77;;;3.03;;
64615;SDS011;51027;42.162;24.754;2024-01-07T12:58:22;12.52;;;3.30;;
64615;SDS011;51027;42.162;24.754;2024-01-07T13:00:48;14.23;;;4.97;;
64615;SDS011;51027;42.162;24.754;2024-01-07T13:03:13;16.63;;;3.55;;
64615;SDS011;51027;42.162;24.754;2024-01-07T13:05:43;13.32;;;2.95;;
64615;SDS011;51027;42.162;24.754;2024-01-07T13:08:09;13.90;;;3.42;;
64615;SDS011;51027;42.162;24.754;2024-01-07T13:10:34;11.32;;;2.70;;
64615;SDS011;51027;42.162;24.754;2024-01-07T13:13:00;8.75;;;2.50;;
64615;SDS011;51027;42.162;24.754;2024-01-07T13:15:25;9.90;;;2.85;;
64615;SDS011;51027;42.162;24.754;2024-01-07T13:17:51;10.45;;;2.63;;
64615;SDS011;51027;42.162;24.754;2024-01-07T13:20:16;24.45;;;11.45;;
64615;SDS011;51027;42.162;24.754;2024-01-07T13:22:45;13.88;;;3.35;;
64615;SDS011;51027;42.162;24.754;2024-01-07T13:25:11;9.30;;;2.35;;
64615;SDS011;51027;42.162;24.754;2024-01-07T13:27:37;11.30;;;2.33;;
64615;SDS011;51027;42.162;24.754;2024-01-07T13:30:03;13.20;;;3.08;;
64615;SDS011;51027;42.162;24.754;2024-01-07T13:32:29;11.02;;;2.60;;
64615;SDS011;51027;42.162;24.754;2024-01-07T13:34:54;11.23;;;2.65;;
64615;SDS011;51027;42.162;24.754;2024-01-07T13:37:20;12.63;;;2.55;;
64615;SDS011;51027;42.162;24.754;2024-01-07T13:39:45;16.25;;;3.47;;
64615;SDS011;51027;42.162;24.754;2024-01-07T13:42:11;13.98;;;3.17;;
64615;SDS011;51027;42.162;24.754;2024-01-07T13:44:37;12.30;;;2.70;;
64615;SDS011;51027;42.162;24.754;2024-01-07T13:47:11;10.02;;;2.85;;
64615;SDS011;51027;42.162;24.754;2024-01-07T13:49:38;6.97;;;2.28;;
64615;SDS011;51027;42.162;24.754;2024-01-07T13:52:04;9.95;;;2.88;;
64615;SDS011;51027;42.162;24.754;2024-01-07T13:54:29;14.27;;;3.17;;
64615;SDS011;51027;42.162;24.754;2024-01-07T13:56:55;12.35;;;3.28;;
64615;SDS011;51027;42.162;24.754;2024-01-07T13:59:21;12.32;;;2.60;;
64615;SDS011;51027;42.162;24.754;2024-01-07T14:01:48;12.45;;;3.40;;
64615;SDS011;51027;42.162;24.754;2024-01-07T14:04:14;17.15;;;3.13;;
64615;SDS011;51027;42.162;24.754;2024-01-07T14:06:40;14.57;;;3.83;;
64615;SDS011;51027;42.162;24.754;2024-01-07T14:09:05;12.20;;;3.00;;
64615;SDS011;51027;42.162;24.754;2024-01-07T14:11:33;14.88;;;3.30;;
64615;SDS011;51027;42.162;24.754;2024-01-07T14:13:59;12.77;;;3.08;;
64615;SDS011;51027;42.162;24.754;2024-01-07T14:16:26;14.73;;;3.38;;
64615;SDS011;51027;42.162;24.754;2024-01-07T14:18:51;15.77;;;3.35;;
64615;SDS011;51027;42.162;24.754;2024-01-07T14:21:17;21.30;;;6.45;;